sensor_id;sensor_type;location;lat;lon;timestamp;pressure;altitude;pressure_sealevel;temperature;humidity
62055;BME280;48653;51.742;-1.256;2023-08-17T00:01:47;101426.34;;;18.69;41.34
62055;BME280;48653;51.742;-1.256;2023-08-17T00:04:13;101425.54;;;19.05;40.86
62055;BME280;48653;51.742;-1.256;2023-08-17T00:06:37;101423.01;;;18.92;42.63
62055;BME280;48653;51.742;-1.256;2023-08-17T00:09:03;101419.37;;;18.62;42.56
62055;BME280;48653;51.742;-1.256;2023-08-17T00:11:27;101415.66;;;18.59;42.64
62055;BME280;48653;51.742;-1.256;2023-08-17T00:13:53;101413.90;;;18.49;42.81
62055;BME280;48653;51.742;-1.256;2023-08-17T00:16:18;101415.92;;;18.76;42.37
62055;BME280;48653;51.742;-1.256;2023-08-17T00:18:44;101412.56;;;18.45;43.12
62055;BME280;48653;51.742;-1.256;2023-08-17T00:21:09;101413.95;;;18.40;43.12
62055;BME280;48653;51.742;-1.256;2023-08-17T00:23:34;101416.22;;;18.37;43.34
62055;BME280;48653;51.742;-1.256;2023-08-17T00:25:59;101412.67;;;18.23;43.82
62055;BME280;48653;51.742;-1.256;2023-08-17T00:28:24;101415.89;;;18.61;43.94
62055;BME280;48653;51.742;-1.256;2023-08-17T00:30:50;101420.63;;;18.64;43.31
62055;BME280;48653;51.742;-1.256;2023-08-17T00:33:15;101417.92;;;17.92;44.33
62055;BME280;48653;51.742;-1.256;2023-08-17T00:35:40;101416.57;;;17.91;45.53
62055;BME280;48653;51.742;-1.256;2023-08-17T00:38:05;101420.31;;;18.00;45.91
62055;BME280;48653;51.742;-1.256;2023-08-17T00:40:30;101423.76;;;17.88;46.02
62055;BME280;48653;51.742;-1.256;2023-08-17T00:42:55;101429.82;;;18.28;46.12
62055;BME280;48653;51.742;-1.256;2023-08-17T00:45:22;101428.38;;;18.58;45.80
62055;BME280;48653;51.742;-1.256;2023-08-17T00:47:46;101429.26;;;18.23;44.94
62055;BME280;48653;51.742;-1.256;2023-08-17T00:50:12;101429.79;;;18.28;45.48
62055;BME280;48653;51.742;-1.256;2023-08-17T00:52:37;101431.57;;;18.50;45.28
62055;BME280;48653;51.742;-1.256;2023-08-17T00:55:03;101432.73;;;18.69;45.04
62055;BME280;48653;51.742;-1.256;2023-08-17T00:57:27;101436.29;;;18.01;45.33
62055;BME280;48653;51.742;-1.256;2023-08-17T00:59:53;101435.88;;;18.35;44.83
62055;BME280;48653;51.742;-1.256;2023-08-17T01:02:18;101431.71;;;18.18;44.69
62055;BME280;48653;51.742;-1.256;2023-08-17T01:04:42;101431.68;;;18.45;45.46
62055;BME280;48653;51.742;-1.256;2023-08-17T01:07:08;101429.73;;;18.39;45.72
62055;BME280;48653;51.742;-1.256;2023-08-17T01:09:34;101426.44;;;18.13;45.95
62055;BME280;48653;51.742;-1.256;2023-08-17T01:12:04;101423.29;;;18.03;45.38
62055;BME280;48653;51.742;-1.256;2023-08-17T01:14:29;101421.49;;;17.89;45.92
62055;BME280;48653;51.742;-1.256;2023-08-17T01:16:53;101419.81;;;18.13;45.52
62055;BME280;48653;51.742;-1.256;2023-08-17T01:19:21;101420.10;;;17.83;45.43
62055;BME280;48653;51.742;-1.256;2023-08-17T01:21:42;101421.76;;;17.70;45.04
62055;BME280;48653;51.742;-1.256;2023-08-17T01:24:06;101422.39;;;17.96;45.05
62055;BME280;48653;51.742;-1.256;2023-08-17T01:26:30;101421.87;;;17.96;45.13
62055;BME280;48653;51.742;-1.256;2023-08-17T01:28:55;101417.61;;;18.17;45.79
62055;BME280;48653;51.742;-1.256;2023-08-17T01:31:27;101415.23;;;17.87;45.27
62055;BME280;48653;51.742;-1.256;2023-08-17T01:33:50;101415.32;;;18.12;46.13
62055;BME280;48653;51.742;-1.256;2023-08-17T01:36:16;101413.78;;;17.94;46.31
62055;BME280;48653;51.742;-1.256;2023-08-17T01:38:37;101415.60;;;17.63;45.72
62055;BME280;48653;51.742;-1.256;2023-08-17T01:41:02;101423.52;;;17.81;46.29
62055;BME280;48653;51.742;-1.256;2023-08-17T01:43:28;101423.90;;;17.51;46.70
62055;BME280;48653;51.742;-1.256;2023-08-17T01:45:54;101425.84;;;17.64;46.93
62055;BME280;48653;51.742;-1.256;2023-08-17T01:48:18;101424.82;;;17.56;46.85
62055;BME280;48653;51.742;-1.256;2023-08-17T01:50:43;101424.68;;;17.78;47.61
62055;BME280;48653;51.742;-1.256;2023-08-17T01:53:09;101422.24;;;17.87;46.69
62055;BME280;48653;51.742;-1.256;2023-08-17T01:55:35;101418.98;;;17.90;46.91
62055;BME280;48653;51.742;-1.256;2023-08-17T01:58:00;101415.39;;;17.70;46.33
62055;BME280;48653;51.742;-1.256;2023-08-17T02:00:25;101414.05;;;17.31;46.76
62055;BME280;48653;51.742;-1.256;2023-08-17T02:02:51;101413.93;;;17.66;47.51
62055;BME280;48653;51.742;-1.256;2023-08-17T02:05:16;101415.44;;;17.88;46.81
62055;BME280;48653;51.742;-1.256;2023-08-17T02:07:41;101418.63;;;17.83;46.89
62055;BME280;48653;51.742;-1.256;2023-08-17T02:10:07;101418.68;;;17.81;46.74
62055;BME280;48653;51.742;-1.256;2023-08-17T02:12:32;101419.48;;;17.41;47.10
62055;BME280;48653;51.742;-1.256;2023-08-17T02:14:58;101418.58;;;17.69;47.12
62055;BME280;48653;51.742;-1.256;2023-08-17T02:17:23;101418.23;;;17.65;47.52
62055;BME280;48653;51.742;-1.256;2023-08-17T02:19:49;101414.11;;;17.56;46.32
62055;BME280;48653;51.742;-1.256;2023-08-17T02:22:14;101413.07;;;17.64;46.78
62055;BME280;48653;51.742;-1.256;2023-08-17T02:24:39;101410.53;;;17.26;46.88
62055;BME280;48653;51.742;-1.256;2023-08-17T02:27:04;101412.73;;;17.46;47.81
62055;BME280;48653;51.742;-1.256;2023-08-17T02:29:30;101409.93;;;17.50;47.17
62055;BME280;48653;51.742;-1.256;2023-08-17T02:31:56;101407.26;;;17.19;47.02
62055;BME280;48653;51.742;-1.256;2023-08-17T02:34:21;101405.12;;;17.44;47.11
62055;BME280;48653;51.742;-1.256;2023-08-17T02:36:46;101406.17;;;17.38;46.65
62055;BME280;48653;51.742;-1.256;2023-08-17T02:39:11;101406.67;;;17.70;46.15
62055;BME280;48653;51.742;-1.256;2023-08-17T02:41:37;101408.21;;;17.57;47.22
62055;BME280;48653;51.742;-1.256;2023-08-17T02:44:02;101409.07;;;17.42;47.38
62055;BME280;48653;51.742;-1.256;2023-08-17T02:46:27;101404.58;;;17.45;47.44
62055;BME280;48653;51.742;-1.256;2023-08-17T02:48:52;101408.13;;;17.14;47.58
62055;BME280;48653;51.742;-1.256;2023-08-17T02:51:18;101411.12;;;17.27;47.10
62055;BME280;48653;51.742;-1.256;2023-08-17T02:53:43;101412.74;;;17.36;48.01
62055;BME280;48653;51.742;-1.256;2023-08-17T02:56:08;101411.98;;;16.90;47.24
62055;BME280;48653;51.742;-1.256;2023-08-17T02:58:33;101406.58;;;17.22;47.01
62055;BME280;48653;51.742;-1.256;2023-08-17T03:01:02;101409.43;;;17.01;47.27
62055;BME280;48653;51.742;-1.256;2023-08-17T03:03:24;101410.11;;;17.05;47.61
62055;BME280;48653;51.742;-1.256;2023-08-17T03:05:50;101409.19;;;17.13;48.30
62055;BME280;48653;51.742;-1.256;2023-08-17T03:08:15;101407.40;;;17.01;48.30
62055;BME280;48653;51.742;-1.256;2023-08-17T03:10:41;101408.99;;;17.07;48.58
62055;BME280;48653;51.742;-1.256;2023-08-17T03:13:06;101406.15;;;17.27;49.56
62055;BME280;48653;51.742;-1.256;2023-08-17T03:15:31;101401.95;;;16.90;50.31
62055;BME280;48653;51.742;-1.256;2023-08-17T03:17:57;101404.03;;;16.95;49.63
62055;BME280;48653;51.742;-1.256;2023-08-17T03:20:22;101405.05;;;17.18;48.92
62055;BME280;48653;51.742;-1.256;2023-08-17T03:22:48;101408.97;;;17.33;48.80
62055;BME280;48653;51.742;-1.256;2023-08-17T03:25:13;101410.19;;;17.31;49.02
62055;BME280;48653;51.742;-1.256;2023-08-17T03:27:38;101412.87;;;17.18;48.50
62055;BME280;48653;51.742;-1.256;2023-08-17T03:30:05;101406.72;;;17.24;49.01
62055;BME280;48653;51.742;-1.256;2023-08-17T03:32:29;101407.06;;;17.14;49.57
62055;BME280;48653;51.742;-1.256;2023-08-17T03:34:54;101404.35;;;16.97;49.46
62055;BME280;48653;51.742;-1.256;2023-08-17T03:37:19;101402.21;;;16.92;48.74
62055;BME280;48653;51.742;-1.256;2023-08-17T03:39:45;101401.45;;;17.62;48.95
62055;BME280;48653;51.742;-1.256;2023-08-17T03:42:10;101394.88;;;17.32;49.00
62055;BME280;48653;51.742;-1.256;2023-08-17T03:44:35;101396.75;;;17.13;49.14
62055;BME280;48653;51.742;-1.256;2023-08-17T03:47:01;101393.96;;;17.49;48.10
62055;BME280;48653;51.742;-1.256;2023-08-17T03:49:26;101395.35;;;17.58;48.27
62055;BME280;48653;51.742;-1.256;2023-08-17T03:51:51;101395.17;;;17.64;47.59
62055;BME280;48653;51.742;-1.256;2023-08-17T03:54:17;101398.45;;;17.55;47.87
62055;BME280;48653;51.742;-1.256;2023-08-17T03:56:42;101402.05;;;17.68;46.97
62055;BME280;48653;51.742;-1.256;2023-08-17T03:59:07;101399.32;;;17.57;47.40
62055;BME280;48653;51.742;-1.256;2023-08-17T04:01:33;101396.07;;;17.33;47.49
62055;BME280;48653;51.742;-1.256;2023-08-17T04:03:58;101394.91;;;17.29;47.21
62055;BME280;48653;51.742;-1.256;2023-08-17T04:06:23;101402.88;;;17.09;48.07
62055;BME280;48653;51.742;-1.256;2023-08-17T04:08:49;101402.16;;;17.75;48.31
62055;BME280;48653;51.742;-1.256;2023-08-17T04:11:13;101400.59;;;17.49;48.52
62055;BME280;48653;51.742;-1.256;2023-08-17T04:13:39;101397.23;;;17.97;47.84
62055;BME280;48653;51.742;-1.256;2023-08-17T04:16:05;101393.61;;;17.79;47.38
62055;BME280;48653;51.742;-1.256;2023-08-17T04:18:30;101392.38;;;17.52;48.53
62055;BME280;48653;51.742;-1.256;2023-08-17T04:20:55;101391.78;;;17.33;47.78
62055;BME280;48653;51.742;-1.256;2023-08-17T04:23:20;101386.20;;;17.70;48.49
62055;BME280;48653;51.742;-1.256;2023-08-17T04:25:47;101382.59;;;17.46;48.36
62055;BME280;48653;51.742;-1.256;2023-08-17T04:28:11;101381.09;;;17.69;47.72
62055;BME280;48653;51.742;-1.256;2023-08-17T04:30:37;101382.26;;;17.99;48.23
62055;BME280;48653;51.742;-1.256;2023-08-17T04:33:01;101383.15;;;17.78;47.97
62055;BME280;48653;51.742;-1.256;2023-08-17T04:35:26;101383.33;;;17.92;47.56
62055;BME280;48653;51.742;-1.256;2023-08-17T04:37:52;101379.72;;;17.94;48.25
62055;BME280;48653;51.742;-1.256;2023-08-17T04:40:17;101379.36;;;17.62;48.65
62055;BME280;48653;51.742;-1.256;2023-08-17T04:42:42;101380.03;;;17.50;48.52
62055;BME280;48653;51.742;-1.256;2023-08-17T04:45:08;101378.41;;;18.00;47.92
62055;BME280;48653;51.742;-1.256;2023-08-17T04:47:33;101375.02;;;17.42;47.18
62055;BME280;48653;51.742;-1.256;2023-08-17T04:49:58;101371.32;;;18.24;46.79
62055;BME280;48653;51.742;-1.256;2023-08-17T04:52:23;101369.27;;;17.54;46.77
62055;BME280;48653;51.742;-1.256;2023-08-17T04:54:48;101371.41;;;17.84;46.65
62055;BME280;48653;51.742;-1.256;2023-08-17T04:57:14;101372.08;;;17.55;47.19
62055;BME280;48653;51.742;-1.256;2023-08-17T04:59:40;101371.31;;;17.45;46.81
62055;BME280;48653;51.742;-1.256;2023-08-17T05:02:05;101372.08;;;17.25;48.14
62055;BME280;48653;51.742;-1.256;2023-08-17T05:04:30;101370.31;;;17.32;47.52
62055;BME280;48653;51.742;-1.256;2023-08-17T05:06:55;101371.98;;;17.43;47.20
62055;BME280;48653;51.742;-1.256;2023-08-17T05:09:21;101373.28;;;17.31;48.51
62055;BME280;48653;51.742;-1.256;2023-08-17T05:11:45;101373.92;;;17.45;48.00
62055;BME280;48653;51.742;-1.256;2023-08-17T05:14:11;101376.40;;;17.20;47.82
62055;BME280;48653;51.742;-1.256;2023-08-17T05:16:36;101377.61;;;17.28;47.66
62055;BME280;48653;51.742;-1.256;2023-08-17T05:19:03;101376.65;;;17.29;47.72
62055;BME280;48653;51.742;-1.256;2023-08-17T05:21:27;101376.64;;;17.22;47.31
62055;BME280;48653;51.742;-1.256;2023-08-17T05:23:53;101379.10;;;17.20;48.07
62055;BME280;48653;51.742;-1.256;2023-08-17T05:26:17;101383.25;;;17.17;47.83
62055;BME280;48653;51.742;-1.256;2023-08-17T05:28:43;101384.13;;;17.33;48.48
62055;BME280;48653;51.742;-1.256;2023-08-17T05:31:08;101383.68;;;17.57;47.94
62055;BME280;48653;51.742;-1.256;2023-08-17T05:33:33;101388.30;;;17.20;48.71
62055;BME280;48653;51.742;-1.256;2023-08-17T05:35:58;101392.32;;;17.29;48.55
62055;BME280;48653;51.742;-1.256;2023-08-17T05:38:23;101393.43;;;17.58;48.62
62055;BME280;48653;51.742;-1.256;2023-08-17T05:40:48;101395.19;;;17.60;49.14
62055;BME280;48653;51.742;-1.256;2023-08-17T05:43:13;101395.44;;;17.19;49.17
62055;BME280;48653;51.742;-1.256;2023-08-17T05:45:38;101395.52;;;17.20;51.34
62055;BME280;48653;51.742;-1.256;2023-08-17T05:48:03;101394.14;;;17.41;50.46
62055;BME280;48653;51.742;-1.256;2023-08-17T05:50:28;101389.47;;;17.55;50.16
62055;BME280;48653;51.742;-1.256;2023-08-17T05:52:54;101389.70;;;17.32;50.27
62055;BME280;48653;51.742;-1.256;2023-08-17T05:55:18;101389.08;;;17.29;50.39
62055;BME280;48653;51.742;-1.256;2023-08-17T05:57:44;101388.76;;;17.66;49.24
62055;BME280;48653;51.742;-1.256;2023-08-17T06:00:11;101387.70;;;17.41;50.07
62055;BME280;48653;51.742;-1.256;2023-08-17T06:02:34;101387.36;;;17.23;50.55
62055;BME280;48653;51.742;-1.256;2023-08-17T06:05:00;101388.92;;;17.31;49.71
62055;BME280;48653;51.742;-1.256;2023-08-17T06:07:25;101389.01;;;17.89;49.11
62055;BME280;48653;51.742;-1.256;2023-08-17T06:09:50;101385.95;;;17.67;49.58
62055;BME280;48653;51.742;-1.256;2023-08-17T06:12:16;101382.29;;;17.81;49.22
62055;BME280;48653;51.742;-1.256;2023-08-17T06:14:43;101383.12;;;17.76;49.15
62055;BME280;48653;51.742;-1.256;2023-08-17T06:17:07;101383.63;;;17.70;49.23
62055;BME280;48653;51.742;-1.256;2023-08-17T06:19:33;101384.36;;;18.14;49.67
62055;BME280;48653;51.742;-1.256;2023-08-17T06:21:59;101381.47;;;17.89;49.62
62055;BME280;48653;51.742;-1.256;2023-08-17T06:24:24;101380.34;;;17.80;50.80
62055;BME280;48653;51.742;-1.256;2023-08-17T06:26:49;101386.56;;;18.01;49.19
62055;BME280;48653;51.742;-1.256;2023-08-17T06:29:14;101391.51;;;17.79;49.50
62055;BME280;48653;51.742;-1.256;2023-08-17T06:31:41;101392.98;;;18.22;49.05
62055;BME280;48653;51.742;-1.256;2023-08-17T06:34:05;101395.16;;;18.04;49.36
62055;BME280;48653;51.742;-1.256;2023-08-17T06:36:31;101397.66;;;18.12;49.47
62055;BME280;48653;51.742;-1.256;2023-08-17T06:38:56;101395.67;;;18.16;49.64
62055;BME280;48653;51.742;-1.256;2023-08-17T06:41:21;101396.14;;;18.64;49.86
62055;BME280;48653;51.742;-1.256;2023-08-17T06:43:47;101398.03;;;17.93;51.21
62055;BME280;48653;51.742;-1.256;2023-08-17T06:46:12;101395.68;;;18.34;50.83
62055;BME280;48653;51.742;-1.256;2023-08-17T06:48:38;101396.33;;;18.40;50.92
62055;BME280;48653;51.742;-1.256;2023-08-17T06:51:03;101386.84;;;18.31;50.26
62055;BME280;48653;51.742;-1.256;2023-08-17T06:53:28;101385.48;;;18.99;50.43
62055;BME280;48653;51.742;-1.256;2023-08-17T06:55:54;101384.23;;;19.10;50.25
62055;BME280;48653;51.742;-1.256;2023-08-17T06:58:19;101388.68;;;19.48;50.04
62055;BME280;48653;51.742;-1.256;2023-08-17T07:00:45;101386.87;;;18.91;50.36
62055;BME280;48653;51.742;-1.256;2023-08-17T07:03:10;101389.76;;;19.48;50.19
62055;BME280;48653;51.742;-1.256;2023-08-17T07:05:35;101387.74;;;17.89;53.87
62055;BME280;48653;51.742;-1.256;2023-08-17T07:08:00;101383.98;;;18.72;52.85
62055;BME280;48653;51.742;-1.256;2023-08-17T07:10:27;101384.01;;;19.35;51.48
62055;BME280;48653;51.742;-1.256;2023-08-17T07:12:52;101385.48;;;19.97;50.46
62055;BME280;48653;51.742;-1.256;2023-08-17T07:15:17;101391.67;;;19.24;51.02
62055;BME280;48653;51.742;-1.256;2023-08-17T07:17:43;101386.57;;;19.34;51.64
62055;BME280;48653;51.742;-1.256;2023-08-17T07:20:10;101386.49;;;19.19;52.60
62055;BME280;48653;51.742;-1.256;2023-08-17T07:22:34;101387.19;;;19.45;50.99
62055;BME280;48653;51.742;-1.256;2023-08-17T07:24:59;101382.91;;;20.27;50.38
62055;BME280;48653;51.742;-1.256;2023-08-17T07:27:25;101388.37;;;20.32;49.51
62055;BME280;48653;51.742;-1.256;2023-08-17T07:29:50;101380.94;;;20.09;50.40
62055;BME280;48653;51.742;-1.256;2023-08-17T07:32:16;101382.86;;;19.81;50.78
62055;BME280;48653;51.742;-1.256;2023-08-17T07:34:42;101383.40;;;20.02;49.88
62055;BME280;48653;51.742;-1.256;2023-08-17T07:37:07;101386.06;;;20.32;49.85
62055;BME280;48653;51.742;-1.256;2023-08-17T07:39:33;101384.95;;;20.34;50.59
62055;BME280;48653;51.742;-1.256;2023-08-17T07:41:58;101377.42;;;20.66;50.42
62055;BME280;48653;51.742;-1.256;2023-08-17T07:44:23;101378.19;;;20.28;50.68
62055;BME280;48653;51.742;-1.256;2023-08-17T07:46:49;101382.15;;;19.35;51.97
62055;BME280;48653;51.742;-1.256;2023-08-17T07:49:14;101381.20;;;20.98;50.14
62055;BME280;48653;51.742;-1.256;2023-08-17T07:51:40;101379.93;;;20.19;50.40
62055;BME280;48653;51.742;-1.256;2023-08-17T07:54:05;101381.99;;;21.03;49.19
62055;BME280;48653;51.742;-1.256;2023-08-17T07:56:30;101379.85;;;18.78;54.27
62055;BME280;48653;51.742;-1.256;2023-08-17T07:58:55;101382.34;;;19.50;52.86
62055;BME280;48653;51.742;-1.256;2023-08-17T08:01:20;101375.73;;;18.78;54.57
62055;BME280;48653;51.742;-1.256;2023-08-17T08:06:11;101373.99;;;18.97;54.61
62055;BME280;48653;51.742;-1.256;2023-08-17T08:08:37;101375.06;;;20.00;52.80
62055;BME280;48653;51.742;-1.256;2023-08-17T08:11:02;101366.42;;;20.15;50.96
62055;BME280;48653;51.742;-1.256;2023-08-17T08:13:27;101365.83;;;19.73;52.36
62055;BME280;48653;51.742;-1.256;2023-08-17T08:15:52;101359.90;;;19.98;52.50
62055;BME280;48653;51.742;-1.256;2023-08-17T08:18:17;101359.72;;;21.03;50.78
62055;BME280;48653;51.742;-1.256;2023-08-17T08:37:38;101366.03;;;22.68;46.63
62055;BME280;48653;51.742;-1.256;2023-08-17T08:40:10;101366.61;;;22.31;45.85
62055;BME280;48653;51.742;-1.256;2023-08-17T08:42:29;101366.23;;;22.06;46.32
62055;BME280;48653;51.742;-1.256;2023-08-17T08:44:54;101364.17;;;21.54;47.20
62055;BME280;48653;51.742;-1.256;2023-08-17T08:49:53;101356.46;;;21.62;47.06
62055;BME280;48653;51.742;-1.256;2023-08-17T08:52:14;101347.09;;;22.20;46.20
62055;BME280;48653;51.742;-1.256;2023-08-17T08:54:38;101346.22;;;21.93;46.70
62055;BME280;48653;51.742;-1.256;2023-08-17T08:57:03;101347.27;;;21.65;46.60
62055;BME280;48653;51.742;-1.256;2023-08-17T08:59:27;101346.72;;;21.45;47.10
62055;BME280;48653;51.742;-1.256;2023-08-17T09:01:52;101356.50;;;22.65;45.73
62055;BME280;48653;51.742;-1.256;2023-08-17T09:04:17;101353.47;;;22.73;45.01
62055;BME280;48653;51.742;-1.256;2023-08-17T09:06:43;101350.69;;;23.57;43.10
62055;BME280;48653;51.742;-1.256;2023-08-17T09:09:08;101344.97;;;24.22;42.01
62055;BME280;48653;51.742;-1.256;2023-08-17T09:11:33;101351.26;;;23.93;41.49
62055;BME280;48653;51.742;-1.256;2023-08-17T09:14:00;101349.91;;;23.49;42.77
62055;BME280;48653;51.742;-1.256;2023-08-17T09:16:24;101351.50;;;23.29;43.47
62055;BME280;48653;51.742;-1.256;2023-08-17T09:18:48;101351.10;;;23.28;43.15
62055;BME280;48653;51.742;-1.256;2023-08-17T09:21:20;101343.93;;;23.55;42.45
62055;BME280;48653;51.742;-1.256;2023-08-17T09:23:39;101338.49;;;24.22;41.87
62055;BME280;48653;51.742;-1.256;2023-08-17T09:26:08;101342.41;;;23.68;43.02
62055;BME280;48653;51.742;-1.256;2023-08-17T09:28:29;101339.13;;;23.52;42.68
62055;BME280;48653;51.742;-1.256;2023-08-17T09:30:56;101335.93;;;24.13;42.34
62055;BME280;48653;51.742;-1.256;2023-08-17T09:33:21;101336.18;;;23.81;41.66
62055;BME280;48653;51.742;-1.256;2023-08-17T09:35:45;101338.26;;;23.52;42.64
62055;BME280;48653;51.742;-1.256;2023-08-17T09:38:10;101350.24;;;23.41;42.21
62055;BME280;48653;51.742;-1.256;2023-08-17T09:40:35;101356.14;;;22.05;45.65
62055;BME280;48653;51.742;-1.256;2023-08-17T09:45:27;101350.74;;;23.96;43.45
62055;BME280;48653;51.742;-1.256;2023-08-17T09:52:43;101354.69;;;21.93;44.89
62055;BME280;48653;51.742;-1.256;2023-08-17T09:55:09;101351.75;;;22.12;45.26
62055;BME280;48653;51.742;-1.256;2023-08-17T09:57:41;101351.36;;;22.90;44.12
62055;BME280;48653;51.742;-1.256;2023-08-17T09:59:58;101346.89;;;23.13;43.93
62055;BME280;48653;51.742;-1.256;2023-08-17T10:02:24;101345.86;;;22.88;44.01
62055;BME280;48653;51.742;-1.256;2023-08-17T10:09:43;101345.03;;;21.91;46.22
62055;BME280;48653;51.742;-1.256;2023-08-17T10:17:06;101352.46;;;21.19;46.89
62055;BME280;48653;51.742;-1.256;2023-08-17T10:19:32;101353.56;;;21.48;45.74
62055;BME280;48653;51.742;-1.256;2023-08-17T10:41:10;101349.45;;;21.33;45.59
62055;BME280;48653;51.742;-1.256;2023-08-17T10:43:33;101350.40;;;21.25;45.22
62055;BME280;48653;51.742;-1.256;2023-08-17T10:48:26;101345.75;;;22.46;44.23
62055;BME280;48653;51.742;-1.256;2023-08-17T10:50:59;101351.65;;;23.11;43.31
62055;BME280;48653;51.742;-1.256;2023-08-17T10:53:13;101351.04;;;23.11;43.29
62055;BME280;48653;51.742;-1.256;2023-08-17T10:55:39;101349.60;;;23.74;41.39
62055;BME280;48653;51.742;-1.256;2023-08-17T10:58:04;101349.14;;;23.99;41.26
62055;BME280;48653;51.742;-1.256;2023-08-17T11:00:34;101340.96;;;24.90;41.17
62055;BME280;48653;51.742;-1.256;2023-08-17T11:02:54;101340.33;;;23.66;41.64
62055;BME280;48653;51.742;-1.256;2023-08-17T11:07:44;101332.54;;;24.63;40.63
62055;BME280;48653;51.742;-1.256;2023-08-17T11:10:12;101329.80;;;24.83;39.78
62055;BME280;48653;51.742;-1.256;2023-08-17T11:12:33;101326.46;;;25.30;39.52
62055;BME280;48653;51.742;-1.256;2023-08-17T11:14:58;101324.27;;;25.83;38.24
62055;BME280;48653;51.742;-1.256;2023-08-17T11:17:23;101321.12;;;25.25;37.40
62055;BME280;48653;51.742;-1.256;2023-08-17T11:19:48;101313.25;;;24.85;38.06
62055;BME280;48653;51.742;-1.256;2023-08-17T11:22:13;101310.93;;;25.28;38.17
62055;BME280;48653;51.742;-1.256;2023-08-17T11:24:38;101303.74;;;26.53;37.43
62055;BME280;48653;51.742;-1.256;2023-08-17T11:27:04;101298.36;;;26.55;36.25
62055;BME280;48653;51.742;-1.256;2023-08-17T11:29:31;101302.17;;;27.30;36.69
62055;BME280;48653;51.742;-1.256;2023-08-17T11:31:53;101303.69;;;26.78;34.84
62055;BME280;48653;51.742;-1.256;2023-08-17T11:34:18;101300.51;;;26.67;35.14
62055;BME280;48653;51.742;-1.256;2023-08-17T11:36:43;101302.69;;;25.48;35.82
62055;BME280;48653;51.742;-1.256;2023-08-17T11:39:08;101300.34;;;25.47;36.11
62055;BME280;48653;51.742;-1.256;2023-08-17T11:41:34;101305.50;;;24.83;36.85
62055;BME280;48653;51.742;-1.256;2023-08-17T11:43:58;101305.08;;;24.16;36.10
62055;BME280;48653;51.742;-1.256;2023-08-17T11:46:23;101307.36;;;22.37;39.04
62055;BME280;48653;51.742;-1.256;2023-08-17T11:48:49;101303.65;;;23.26;38.13
62055;BME280;48653;51.742;-1.256;2023-08-17T11:51:13;101300.79;;;24.64;37.59
62055;BME280;48653;51.742;-1.256;2023-08-17T11:53:39;101292.46;;;25.31;35.93
62055;BME280;48653;51.742;-1.256;2023-08-17T11:56:04;101286.95;;;25.83;36.44
62055;BME280;48653;51.742;-1.256;2023-08-17T11:58:40;101287.53;;;25.40;35.39
62055;BME280;48653;51.742;-1.256;2023-08-17T12:00:53;101292.71;;;25.81;34.33
62055;BME280;48653;51.742;-1.256;2023-08-17T12:03:19;101291.77;;;24.90;36.46
62055;BME280;48653;51.742;-1.256;2023-08-17T12:05:44;101296.68;;;23.26;36.59
62055;BME280;48653;51.742;-1.256;2023-08-17T12:08:08;101291.92;;;22.14;38.35
62055;BME280;48653;51.742;-1.256;2023-08-17T12:10:33;101288.25;;;23.28;38.97
62055;BME280;48653;51.742;-1.256;2023-08-17T12:12:58;101280.47;;;22.98;37.92
62055;BME280;48653;51.742;-1.256;2023-08-17T12:15:23;101272.12;;;23.14;38.43
62055;BME280;48653;51.742;-1.256;2023-08-17T12:17:49;101268.74;;;22.08;39.28
62055;BME280;48653;51.742;-1.256;2023-08-17T12:20:16;101272.45;;;22.35;38.25
62055;BME280;48653;51.742;-1.256;2023-08-17T12:22:39;101269.44;;;23.93;38.31
62055;BME280;48653;51.742;-1.256;2023-08-17T12:25:04;101265.12;;;23.90;37.03
62055;BME280;48653;51.742;-1.256;2023-08-17T12:27:28;101266.44;;;23.91;36.73
62055;BME280;48653;51.742;-1.256;2023-08-17T12:29:53;101261.07;;;25.07;36.49
62055;BME280;48653;51.742;-1.256;2023-08-17T12:32:19;101257.77;;;26.05;33.49
62055;BME280;48653;51.742;-1.256;2023-08-17T12:34:44;101256.16;;;26.01;33.43
62055;BME280;48653;51.742;-1.256;2023-08-17T12:37:09;101254.69;;;25.85;35.06
62055;BME280;48653;51.742;-1.256;2023-08-17T12:39:34;101250.82;;;25.88;33.56
62055;BME280;48653;51.742;-1.256;2023-08-17T12:41:58;101252.69;;;24.51;33.94
62055;BME280;48653;51.742;-1.256;2023-08-17T12:44:23;101246.87;;;25.15;34.26
62055;BME280;48653;51.742;-1.256;2023-08-17T12:46:49;101243.73;;;25.62;35.71
62055;BME280;48653;51.742;-1.256;2023-08-17T12:49:13;101241.39;;;25.13;34.41
62055;BME280;48653;51.742;-1.256;2023-08-17T12:51:39;101235.39;;;23.89;36.13
62055;BME280;48653;51.742;-1.256;2023-08-17T12:54:04;101231.24;;;24.24;34.51
62055;BME280;48653;51.742;-1.256;2023-08-17T12:56:29;101230.97;;;23.77;34.71
62055;BME280;48653;51.742;-1.256;2023-08-17T12:58:53;101226.94;;;23.34;36.23
62055;BME280;48653;51.742;-1.256;2023-08-17T13:01:18;101218.78;;;23.90;35.69
62055;BME280;48653;51.742;-1.256;2023-08-17T13:03:44;101217.71;;;24.36;34.36
62055;BME280;48653;51.742;-1.256;2023-08-17T13:06:09;101212.70;;;24.85;34.79
62055;BME280;48653;51.742;-1.256;2023-08-17T13:08:34;101216.45;;;25.49;34.36
62055;BME280;48653;51.742;-1.256;2023-08-17T13:11:00;101217.48;;;26.00;32.33
62055;BME280;48653;51.742;-1.256;2023-08-17T13:13:24;101218.27;;;24.64;33.08
62055;BME280;48653;51.742;-1.256;2023-08-17T13:15:49;101217.11;;;23.88;34.00
62055;BME280;48653;51.742;-1.256;2023-08-17T13:18:14;101214.15;;;23.75;34.41
62055;BME280;48653;51.742;-1.256;2023-08-17T13:20:40;101215.59;;;24.20;34.54
62055;BME280;48653;51.742;-1.256;2023-08-17T13:23:04;101214.24;;;24.30;35.14
62055;BME280;48653;51.742;-1.256;2023-08-17T13:25:29;101211.42;;;23.75;34.70
62055;BME280;48653;51.742;-1.256;2023-08-17T13:27:55;101203.17;;;24.58;33.89
62055;BME280;48653;51.742;-1.256;2023-08-17T13:30:19;101202.48;;;25.03;34.06
62055;BME280;48653;51.742;-1.256;2023-08-17T13:32:44;101203.43;;;24.61;32.20